sensor_id;sensor_type;location;lat;lon;timestamp;P1;durP1;ratioP1;P2;durP2;ratioP2
6693;SDS011;3384;42.628;23.380;2023-11-22T00:01:34;18.60;;;14.00;;
6693;SDS011;3384;42.628;23.380;2023-11-22T00:04:01;20.10;;;13.00;;
6693;SDS011;3384;42.628;23.380;2023-11-22T00:06:28;15.53;;;12.00;;
6693;SDS011;3384;42.628;23.380;2023-11-22T00:08:55;16.67;;;13.20;;
6693;SDS011;3384;42.628;23.380;2023-11-22T00:11:24;17.17;;;13.37;;
6693;SDS011;3384;42.628;23.380;2023-11-22T00:13:51;15.77;;;12.87;;
6693;SDS011;3384;42.628;23.380;2023-11-22T00:16:20;20.20;;;13.00;;
6693;SDS011;3384;42.628;23.380;2023-11-22T00:18:48;18.60;;;13.77;;
6693;SDS011;3384;42.628;23.380;2023-11-22T00:21:15;15.20;;;12.83;;
6693;SDS011;3384;42.628;23.380;2023-11-22T00:23:42;22.03;;;13.07;;
6693;SDS011;3384;42.628;23.380;2023-11-22T00:26:09;15.27;;;13.57;;
6693;SDS011;3384;42.628;23.380;2023-11-22T00:28:37;17.07;;;13.03;;
6693;SDS011;3384;42.628;23.380;2023-11-22T00:31:04;18.57;;;13.93;;
6693;SDS011;3384;42.628;23.380;2023-11-22T00:33:31;20.93;;;12.27;;
6693;SDS011;3384;42.628;23.380;2023-11-22T00:36:00;16.13;;;12.63;;
6693;SDS011;3384;42.628;23.380;2023-11-22T00:38:29;22.50;;;12.80;;
6693;SDS011;3384;42.628;23.380;2023-11-22T00:40:56;21.23;;;13.40;;
6693;SDS011;3384;42.628;23.380;2023-11-22T00:43:23;20.30;;;12.80;;
6693;SDS011;3384;42.628;23.380;2023-11-22T00:45:51;24.70;;;15.87;;
6693;SDS011;3384;42.628;23.380;2023-11-22T00:48:18;20.30;;;13.43;;
6693;SDS011;3384;42.628;23.380;2023-11-22T00:50:45;19.67;;;13.20;;
6693;SDS011;3384;42.628;23.380;2023-11-22T00:53:12;21.83;;;14.17;;
6693;SDS011;3384;42.628;23.380;2023-11-22T00:55:39;20.33;;;13.87;;
6693;SDS011;3384;42.628;23.380;2023-11-22T00:58:07;20.73;;;14.17;;
6693;SDS011;3384;42.628;23.380;2023-11-22T01:00:34;18.50;;;14.80;;
6693;SDS011;3384;42.628;23.380;2023-11-22T01:03:02;17.40;;;12.93;;
6693;SDS011;3384;42.628;23.380;2023-11-22T01:05:30;18.27;;;12.73;;
6693;SDS011;3384;42.628;23.380;2023-11-22T01:07:57;13.80;;;12.00;;
6693;SDS011;3384;42.628;23.380;2023-11-22T01:10:23;19.60;;;12.70;;
6693;SDS011;3384;42.628;23.380;2023-11-22T01:12:50;13.23;;;11.40;;
6693;SDS011;3384;42.628;23.380;2023-11-22T01:15:18;23.20;;;12.20;;
6693;SDS011;3384;42.628;23.380;2023-11-22T01:17:45;21.85;;;12.60;;
6693;SDS011;3384;42.628;23.380;2023-11-22T01:20:13;19.00;;;12.53;;
6693;SDS011;3384;42.628;23.380;2023-11-22T01:22:40;12.30;;;10.50;;
6693;SDS011;3384;42.628;23.380;2023-11-22T01:25:07;16.20;;;12.33;;
6693;SDS011;3384;42.628;23.380;2023-11-22T01:27:34;15.37;;;12.60;;
6693;SDS011;3384;42.628;23.380;2023-11-22T01:30:01;22.50;;;12.00;;
6693;SDS011;3384;42.628;23.380;2023-11-22T01:32:30;17.33;;;12.30;;
6693;SDS011;3384;42.628;23.380;2023-11-22T01:34:57;12.83;;;10.73;;
6693;SDS011;3384;42.628;23.380;2023-11-22T01:37:25;14.43;;;10.63;;
6693;SDS011;3384;42.628;23.380;2023-11-22T01:39:52;14.07;;;10.87;;
6693;SDS011;3384;42.628;23.380;2023-11-22T01:42:19;13.43;;;11.20;;
6693;SDS011;3384;42.628;23.380;2023-11-22T01:44:46;15.43;;;12.93;;
6693;SDS011;3384;42.628;23.380;2023-11-22T01:47:14;13.93;;;11.60;;
6693;SDS011;3384;42.628;23.380;2023-11-22T01:49:41;13.27;;;11.70;;
6693;SDS011;3384;42.628;23.380;2023-11-22T01:52:07;13.27;;;10.60;;
6693;SDS011;3384;42.628;23.380;2023-11-22T01:54:37;16.50;;;10.83;;
6693;SDS011;3384;42.628;23.380;2023-11-22T01:57:04;10.50;;;9.53;;
6693;SDS011;3384;42.628;23.380;2023-11-22T01:59:34;11.43;;;9.93;;
6693;SDS011;3384;42.628;23.380;2023-11-22T02:02:01;13.30;;;10.37;;
6693;SDS011;3384;42.628;23.380;2023-11-22T02:04:28;16.00;;;10.53;;
6693;SDS011;3384;42.628;23.380;2023-11-22T02:06:54;11.83;;;10.70;;
6693;SDS011;3384;42.628;23.380;2023-11-22T02:09:21;11.63;;;10.50;;
6693;SDS011;3384;42.628;23.380;2023-11-22T02:11:49;17.27;;;12.00;;
6693;SDS011;3384;42.628;23.380;2023-11-22T02:14:17;15.90;;;11.10;;
6693;SDS011;3384;42.628;23.380;2023-11-22T02:16:44;17.10;;;12.33;;
6693;SDS011;3384;42.628;23.380;2023-11-22T02:19:13;18.90;;;14.67;;
6693;SDS011;3384;42.628;23.380;2023-11-22T02:21:41;14.43;;;12.23;;
6693;SDS011;3384;42.628;23.380;2023-11-22T02:24:10;13.60;;;12.20;;
6693;SDS011;3384;42.628;23.380;2023-11-22T02:26:37;21.60;;;14.40;;
6693;SDS011;3384;42.628;23.380;2023-11-22T02:29:04;15.63;;;12.57;;
6693;SDS011;3384;42.628;23.380;2023-11-22T02:31:31;15.70;;;12.37;;
6693;SDS011;3384;42.628;23.380;2023-11-22T02:34:00;19.43;;;12.47;;
6693;SDS011;3384;42.628;23.380;2023-11-22T02:36:27;15.90;;;11.90;;
6693;SDS011;3384;42.628;23.380;2023-11-22T02:38:54;21.17;;;13.50;;
6693;SDS011;3384;42.628;23.380;2023-11-22T02:41:22;22.27;;;14.70;;
6693;SDS011;3384;42.628;23.380;2023-11-22T02:43:50;19.07;;;13.20;;
6693;SDS011;3384;42.628;23.380;2023-11-22T02:46:17;15.57;;;13.97;;
6693;SDS011;3384;42.628;23.380;2023-11-22T02:48:44;20.70;;;12.50;;
6693;SDS011;3384;42.628;23.380;2023-11-22T02:51:11;20.37;;;12.33;;
6693;SDS011;3384;42.628;23.380;2023-11-22T02:53:39;13.93;;;12.53;;
6693;SDS011;3384;42.628;23.380;2023-11-22T02:56:08;25.73;;;13.40;;
6693;SDS011;3384;42.628;23.380;2023-11-22T02:58:36;15.80;;;11.93;;
6693;SDS011;3384;42.628;23.380;2023-11-22T03:01:02;19.90;;;13.13;;
6693;SDS011;3384;42.628;23.380;2023-11-22T03:03:29;18.10;;;10.63;;
6693;SDS011;3384;42.628;23.380;2023-11-22T03:05:56;19.30;;;11.77;;
6693;SDS011;3384;42.628;23.380;2023-11-22T03:08:23;19.73;;;12.83;;
6693;SDS011;3384;42.628;23.380;2023-11-22T03:10:50;14.20;;;11.70;;
6693;SDS011;3384;42.628;23.380;2023-11-22T03:13:17;18.23;;;12.20;;
6693;SDS011;3384;42.628;23.380;2023-11-22T03:15:46;21.73;;;13.93;;
6693;SDS011;3384;42.628;23.380;2023-11-22T03:18:13;19.70;;;11.30;;
6693;SDS011;3384;42.628;23.380;2023-11-22T03:20:41;16.00;;;10.33;;
6693;SDS011;3384;42.628;23.380;2023-11-22T03:23:08;22.47;;;13.17;;
6693;SDS011;3384;42.628;23.380;2023-11-22T03:25:36;19.73;;;12.20;;
6693;SDS011;3384;42.628;23.380;2023-11-22T03:28:03;19.47;;;13.37;;
6693;SDS011;3384;42.628;23.380;2023-11-22T03:30:31;15.50;;;11.70;;
6693;SDS011;3384;42.628;23.380;2023-11-22T03:32:59;17.03;;;12.70;;
6693;SDS011;3384;42.628;23.380;2023-11-22T03:35:26;14.50;;;13.00;;
6693;SDS011;3384;42.628;23.380;2023-11-22T03:37:54;19.37;;;12.40;;
6693;SDS011;3384;42.628;23.380;2023-11-22T03:40:21;22.27;;;12.13;;
6693;SDS011;3384;42.628;23.380;2023-11-22T03:42:48;15.87;;;12.17;;
6693;SDS011;3384;42.628;23.380;2023-11-22T03:45:14;14.63;;;12.60;;
6693;SDS011;3384;42.628;23.380;2023-11-22T03:47:41;17.83;;;12.17;;
6693;SDS011;3384;42.628;23.380;2023-11-22T03:50:11;13.93;;;12.50;;
6693;SDS011;3384;42.628;23.380;2023-11-22T03:52:39;19.97;;;12.03;;
6693;SDS011;3384;42.628;23.380;2023-11-22T03:55:07;15.70;;;11.50;;
6693;SDS011;3384;42.628;23.380;2023-11-22T03:57:34;15.77;;;12.27;;
6693;SDS011;3384;42.628;23.380;2023-11-22T04:00:02;20.07;;;12.03;;
6693;SDS011;3384;42.628;23.380;2023-11-22T04:02:31;20.53;;;12.47;;
6693;SDS011;3384;42.628;23.380;2023-11-22T04:04:58;19.50;;;12.70;;
6693;SDS011;3384;42.628;23.380;2023-11-22T04:07:26;14.33;;;12.27;;
6693;SDS011;3384;42.628;23.380;2023-11-22T04:09:54;21.10;;;12.33;;
6693;SDS011;3384;42.628;23.380;2023-11-22T04:12:21;14.40;;;11.93;;
6693;SDS011;3384;42.628;23.380;2023-11-22T04:14:47;16.30;;;12.00;;
6693;SDS011;3384;42.628;23.380;2023-11-22T04:17:15;17.13;;;10.90;;
6693;SDS011;3384;42.628;23.380;2023-11-22T04:19:41;13.57;;;11.90;;
6693;SDS011;3384;42.628;23.380;2023-11-22T04:22:08;18.30;;;12.60;;
6693;SDS011;3384;42.628;23.380;2023-11-22T04:24:37;16.30;;;12.13;;
6693;SDS011;3384;42.628;23.380;2023-11-22T04:27:04;18.93;;;12.33;;
6693;SDS011;3384;42.628;23.380;2023-11-22T04:29:31;14.40;;;11.83;;
6693;SDS011;3384;42.628;23.380;2023-11-22T04:31:58;14.40;;;11.77;;
6693;SDS011;3384;42.628;23.380;2023-11-22T04:34:25;13.27;;;11.77;;
6693;SDS011;3384;42.628;23.380;2023-11-22T04:36:52;15.07;;;12.30;;
6693;SDS011;3384;42.628;23.380;2023-11-22T04:39:19;15.13;;;11.90;;
6693;SDS011;3384;42.628;23.380;2023-11-22T04:41:47;16.47;;;12.00;;
6693;SDS011;3384;42.628;23.380;2023-11-22T04:44:14;13.47;;;12.00;;
6693;SDS011;3384;42.628;23.380;2023-11-22T04:46:41;17.13;;;11.90;;
6693;SDS011;3384;42.628;23.380;2023-11-22T04:49:08;14.83;;;12.43;;
6693;SDS011;3384;42.628;23.380;2023-11-22T04:51:35;16.07;;;11.50;;
6693;SDS011;3384;42.628;23.380;2023-11-22T04:54:02;13.30;;;11.90;;
6693;SDS011;3384;42.628;23.380;2023-11-22T04:56:29;15.60;;;13.20;;
6693;SDS011;3384;42.628;23.380;2023-11-22T04:58:58;13.23;;;11.93;;
6693;SDS011;3384;42.628;23.380;2023-11-22T05:01:24;16.60;;;11.93;;
6693;SDS011;3384;42.628;23.380;2023-11-22T05:03:57;15.40;;;13.77;;
6693;SDS011;3384;42.628;23.380;2023-11-22T05:06:25;12.63;;;11.33;;
6693;SDS011;3384;42.628;23.380;2023-11-22T05:08:52;18.33;;;13.67;;
6693;SDS011;3384;42.628;23.380;2023-11-22T05:11:20;18.00;;;11.90;;
6693;SDS011;3384;42.628;23.380;2023-11-22T05:13:47;20.20;;;11.93;;
6693;SDS011;3384;42.628;23.380;2023-11-22T05:16:16;15.37;;;11.70;;
6693;SDS011;3384;42.628;23.380;2023-11-22T05:18:43;23.17;;;13.90;;
6693;SDS011;3384;42.628;23.380;2023-11-22T05:21:10;13.80;;;11.83;;
6693;SDS011;3384;42.628;23.380;2023-11-22T05:23:37;23.53;;;12.50;;
6693;SDS011;3384;42.628;23.380;2023-11-22T05:26:04;14.60;;;11.37;;
6693;SDS011;3384;42.628;23.380;2023-11-22T05:28:31;27.53;;;12.63;;
6693;SDS011;3384;42.628;23.380;2023-11-22T05:30:58;17.50;;;12.57;;
6693;SDS011;3384;42.628;23.380;2023-11-22T05:33:27;19.10;;;12.20;;
6693;SDS011;3384;42.628;23.380;2023-11-22T05:35:53;23.40;;;12.77;;
6693;SDS011;3384;42.628;23.380;2023-11-22T05:38:20;17.37;;;12.57;;
6693;SDS011;3384;42.628;23.380;2023-11-22T05:40:47;20.60;;;13.60;;
6693;SDS011;3384;42.628;23.380;2023-11-22T05:43:15;13.77;;;11.87;;
6693;SDS011;3384;42.628;23.380;2023-11-22T05:45:42;14.50;;;12.17;;
6693;SDS011;3384;42.628;23.380;2023-11-22T05:48:14;19.70;;;12.87;;
6693;SDS011;3384;42.628;23.380;2023-11-22T05:50:43;24.87;;;13.23;;
6693;SDS011;3384;42.628;23.380;2023-11-22T05:53:10;17.47;;;11.73;;
6693;SDS011;3384;42.628;23.380;2023-11-22T05:55:37;15.60;;;13.40;;
6693;SDS011;3384;42.628;23.380;2023-11-22T05:58:04;19.53;;;11.40;;
6693;SDS011;3384;42.628;23.380;2023-11-22T06:00:31;14.90;;;12.00;;
6693;SDS011;3384;42.628;23.380;2023-11-22T06:02:58;15.70;;;11.67;;
6693;SDS011;3384;42.628;23.380;2023-11-22T06:05:25;13.53;;;12.10;;
6693;SDS011;3384;42.628;23.380;2023-11-22T06:07:53;17.80;;;12.70;;
6693;SDS011;3384;42.628;23.380;2023-11-22T06:10:20;17.17;;;13.17;;
6693;SDS011;3384;42.628;23.380;2023-11-22T06:12:48;16.97;;;13.23;;
6693;SDS011;3384;42.628;23.380;2023-11-22T06:15:14;15.43;;;11.80;;
6693;SDS011;3384;42.628;23.380;2023-11-22T06:17:43;16.17;;;12.13;;
6693;SDS011;3384;42.628;23.380;2023-11-22T06:20:11;16.67;;;12.30;;
6693;SDS011;3384;42.628;23.380;2023-11-22T06:22:38;19.77;;;12.40;;
6693;SDS011;3384;42.628;23.380;2023-11-22T06:25:09;12.57;;;11.23;;
6693;SDS011;3384;42.628;23.380;2023-11-22T06:27:36;21.93;;;13.13;;
6693;SDS011;3384;42.628;23.380;2023-11-22T06:30:04;21.10;;;14.13;;
6693;SDS011;3384;42.628;23.380;2023-11-22T06:32:32;27.77;;;14.10;;
6693;SDS011;3384;42.628;23.380;2023-11-22T06:34:59;13.87;;;12.33;;
6693;SDS011;3384;42.628;23.380;2023-11-22T06:37:26;14.70;;;13.17;;
6693;SDS011;3384;42.628;23.380;2023-11-22T06:39:53;19.17;;;13.77;;
6693;SDS011;3384;42.628;23.380;2023-11-22T06:42:24;14.40;;;12.87;;
6693;SDS011;3384;42.628;23.380;2023-11-22T06:44:51;15.33;;;13.20;;
6693;SDS011;3384;42.628;23.380;2023-11-22T06:47:18;21.30;;;12.80;;
6693;SDS011;3384;42.628;23.380;2023-11-22T06:49:45;20.15;;;14.60;;
6693;SDS011;3384;42.628;23.380;2023-11-22T06:52:12;24.57;;;14.70;;
6693;SDS011;3384;42.628;23.380;2023-11-22T06:54:39;18.10;;;14.30;;
6693;SDS011;3384;42.628;23.380;2023-11-22T06:57:06;21.10;;;15.57;;
6693;SDS011;3384;42.628;23.380;2023-11-22T06:59:35;22.07;;;15.70;;
6693;SDS011;3384;42.628;23.380;2023-11-22T07:02:02;23.87;;;15.30;;
6693;SDS011;3384;42.628;23.380;2023-11-22T07:04:29;22.20;;;16.03;;
6693;SDS011;3384;42.628;23.380;2023-11-22T07:06:56;21.57;;;16.50;;
6693;SDS011;3384;42.628;23.380;2023-11-22T07:09:23;22.83;;;16.00;;
6693;SDS011;3384;42.628;23.380;2023-11-22T07:11:50;24.90;;;15.37;;
6693;SDS011;3384;42.628;23.380;2023-11-22T07:14:17;22.70;;;15.93;;
6693;SDS011;3384;42.628;23.380;2023-11-22T07:16:46;20.20;;;14.93;;
6693;SDS011;3384;42.628;23.380;2023-11-22T07:19:12;18.70;;;15.10;;
6693;SDS011;3384;42.628;23.380;2023-11-22T07:21:39;50.47;;;28.73;;
6693;SDS011;3384;42.628;23.380;2023-11-22T07:24:06;27.20;;;18.50;;
6693;SDS011;3384;42.628;23.380;2023-11-22T07:26:34;18.63;;;14.70;;
6693;SDS011;3384;42.628;23.380;2023-11-22T07:29:02;31.40;;;15.43;;
6693;SDS011;3384;42.628;23.380;2023-11-22T07:31:31;24.10;;;16.80;;
6693;SDS011;3384;42.628;23.380;2023-11-22T07:33:59;25.13;;;16.30;;
6693;SDS011;3384;42.628;23.380;2023-11-22T07:36:27;29.03;;;15.60;;
6693;SDS011;3384;42.628;23.380;2023-11-22T07:38:55;26.20;;;15.90;;
6693;SDS011;3384;42.628;23.380;2023-11-22T07:41:22;22.93;;;16.77;;
6693;SDS011;3384;42.628;23.380;2023-11-22T07:43:49;20.27;;;14.73;;
6693;SDS011;3384;42.628;23.380;2023-11-22T07:46:16;20.20;;;15.70;;
6693;SDS011;3384;42.628;23.380;2023-11-22T07:48:44;20.77;;;15.87;;
6693;SDS011;3384;42.628;23.380;2023-11-22T07:51:14;20.70;;;15.57;;
6693;SDS011;3384;42.628;23.380;2023-11-22T07:53:42;23.33;;;15.77;;
6693;SDS011;3384;42.628;23.380;2023-11-22T07:56:09;23.93;;;16.20;;
6693;SDS011;3384;42.628;23.380;2023-11-22T07:58:36;19.80;;;15.70;;
6693;SDS011;3384;42.628;23.380;2023-11-22T08:01:03;18.87;;;15.60;;
6693;SDS011;3384;42.628;23.380;2023-11-22T08:03:31;25.33;;;14.33;;
6693;SDS011;3384;42.628;23.380;2023-11-22T08:05:59;20.23;;;16.27;;
6693;SDS011;3384;42.628;23.380;2023-11-22T08:08:29;27.13;;;15.83;;
6693;SDS011;3384;42.628;23.380;2023-11-22T08:10:56;31.13;;;15.70;;
6693;SDS011;3384;42.628;23.380;2023-11-22T08:13:23;21.70;;;16.20;;
6693;SDS011;3384;42.628;23.380;2023-11-22T08:15:50;17.10;;;14.90;;
6693;SDS011;3384;42.628;23.380;2023-11-22T08:18:18;35.00;;;15.67;;
6693;SDS011;3384;42.628;23.380;2023-11-22T08:20:45;30.20;;;15.00;;
6693;SDS011;3384;42.628;23.380;2023-11-22T08:23:11;16.70;;;14.80;;
6693;SDS011;3384;42.628;23.380;2023-11-22T08:25:41;20.57;;;14.80;;
6693;SDS011;3384;42.628;23.380;2023-11-22T08:28:08;15.20;;;13.60;;
6693;SDS011;3384;42.628;23.380;2023-11-22T08:30:35;24.73;;;15.53;;
6693;SDS011;3384;42.628;23.380;2023-11-22T08:33:02;16.87;;;15.07;;
6693;SDS011;3384;42.628;23.380;2023-11-22T08:35:29;15.87;;;14.17;;
6693;SDS011;3384;42.628;23.380;2023-11-22T08:37:56;30.50;;;15.00;;
6693;SDS011;3384;42.628;23.380;2023-11-22T08:40:23;19.97;;;15.57;;
6693;SDS011;3384;42.628;23.380;2023-11-22T08:42:52;25.70;;;16.23;;
6693;SDS011;3384;42.628;23.380;2023-11-22T08:45:19;17.50;;;14.37;;
6693;SDS011;3384;42.628;23.380;2023-11-22T08:47:46;19.20;;;14.30;;
6693;SDS011;3384;42.628;23.380;2023-11-22T08:50:15;18.57;;;14.40;;
6693;SDS011;3384;42.628;23.380;2023-11-22T08:52:42;20.77;;;14.37;;
6693;SDS011;3384;42.628;23.380;2023-11-22T08:55:10;19.67;;;14.47;;
6693;SDS011;3384;42.628;23.380;2023-11-22T08:57:37;15.57;;;13.83;;
6693;SDS011;3384;42.628;23.380;2023-11-22T09:00:07;17.87;;;14.17;;
6693;SDS011;3384;42.628;23.380;2023-11-22T09:02:36;22.97;;;14.67;;
6693;SDS011;3384;42.628;23.380;2023-11-22T09:05:04;18.03;;;14.50;;
6693;SDS011;3384;42.628;23.380;2023-11-22T09:07:33;26.53;;;15.07;;
6693;SDS011;3384;42.628;23.380;2023-11-22T09:10:01;21.73;;;14.50;;
6693;SDS011;3384;42.628;23.380;2023-11-22T09:12:34;20.23;;;17.00;;
6693;SDS011;3384;42.628;23.380;2023-11-22T09:15:02;21.90;;;15.50;;
6693;SDS011;3384;42.628;23.380;2023-11-22T09:17:35;26.00;;;14.97;;
6693;SDS011;3384;42.628;23.380;2023-11-22T09:20:04;20.17;;;15.60;;
6693;SDS011;3384;42.628;23.380;2023-11-22T09:22:36;26.93;;;15.47;;
6693;SDS011;3384;42.628;23.380;2023-11-22T09:25:05;26.17;;;18.10;;
6693;SDS011;3384;42.628;23.380;2023-11-22T09:27:34;23.63;;;16.33;;
6693;SDS011;3384;42.628;23.380;2023-11-22T09:30:02;19.70;;;15.00;;
6693;SDS011;3384;42.628;23.380;2023-11-22T09:32:31;25.87;;;14.60;;
6693;SDS011;3384;42.628;23.380;2023-11-22T09:34:59;16.97;;;15.27;;
6693;SDS011;3384;42.628;23.380;2023-11-22T09:37:26;26.87;;;16.80;;
6693;SDS011;3384;42.628;23.380;2023-11-22T09:39:54;22.37;;;16.77;;
6693;SDS011;3384;42.628;23.380;2023-11-22T09:42:21;18.57;;;14.90;;
6693;SDS011;3384;42.628;23.380;2023-11-22T09:44:47;25.87;;;18.07;;
6693;SDS011;3384;42.628;23.380;2023-11-22T09:47:14;23.30;;;17.50;;
6693;SDS011;3384;42.628;23.380;2023-11-22T09:49:44;22.20;;;16.00;;
6693;SDS011;3384;42.628;23.380;2023-11-22T09:52:18;36.40;;;17.97;;
6693;SDS011;3384;42.628;23.380;2023-11-22T09:54:53;21.97;;;16.97;;
6693;SDS011;3384;42.628;23.380;2023-11-22T09:57:21;20.17;;;15.23;;
6693;SDS011;3384;42.628;23.380;2023-11-22T09:59:51;24.80;;;14.83;;
6693;SDS011;3384;42.628;23.380;2023-11-22T10:02:20;22.83;;;16.70;;
6693;SDS011;3384;42.628;23.380;2023-11-22T10:04:51;17.87;;;15.97;;
6693;SDS011;3384;42.628;23.380;2023-11-22T10:07:20;26.10;;;16.23;;
6693;SDS011;3384;42.628;23.380;2023-11-22T10:09:48;21.40;;;17.67;;
6693;SDS011;3384;42.628;23.380;2023-11-22T10:12:18;17.47;;;14.03;;
6693;SDS011;3384;42.628;23.380;2023-11-22T10:14:46;27.77;;;16.77;;
6693;SDS011;3384;42.628;23.380;2023-11-22T10:17:13;26.17;;;15.03;;
6693;SDS011;3384;42.628;23.380;2023-11-22T10:19:42;20.90;;;15.37;;
6693;SDS011;3384;42.628;23.380;2023-11-22T10:22:08;30.40;;;16.77;;
6693;SDS011;3384;42.628;23.380;2023-11-22T10:24:42;35.30;;;17.83;;
6693;SDS011;3384;42.628;23.380;2023-11-22T10:27:11;27.10;;;16.47;;
6693;SDS011;3384;42.628;23.380;2023-11-22T10:29:38;19.70;;;16.77;;
6693;SDS011;3384;42.628;23.380;2023-11-22T10:32:05;21.60;;;15.67;;
6693;SDS011;3384;42.628;23.380;2023-11-22T10:34:33;30.03;;;17.00;;
6693;SDS011;3384;42.628;23.380;2023-11-22T10:37:01;31.60;;;19.80;;
6693;SDS011;3384;42.628;23.380;2023-11-22T10:39:30;33.47;;;18.70;;
6693;SDS011;3384;42.628;23.380;2023-11-22T10:41:59;49.63;;;23.57;;
6693;SDS011;3384;42.628;23.380;2023-11-22T10:44:26;46.30;;;25.53;;
6693;SDS011;3384;42.628;23.380;2023-11-22T10:46:53;39.03;;;24.70;;
6693;SDS011;3384;42.628;23.380;2023-11-22T10:49:21;33.83;;;23.90;;
6693;SDS011;3384;42.628;23.380;2023-11-22T10:51:51;45.13;;;23.40;;
6693;SDS011;3384;42.628;23.380;2023-11-22T10:54:21;45.30;;;23.37;;
6693;SDS011;3384;42.628;23.380;2023-11-22T10:56:51;40.07;;;26.83;;
6693;SDS011;3384;42.628;23.380;2023-11-22T10:59:24;52.67;;;26.27;;
6693;SDS011;3384;42.628;23.380;2023-11-22T11:01:54;40.80;;;24.40;;
6693;SDS011;3384;42.628;23.380;2023-11-22T11:04:24;35.50;;;23.87;;
6693;SDS011;3384;42.628;23.380;2023-11-22T11:06:55;31.87;;;20.83;;
6693;SDS011;3384;42.628;23.380;2023-11-22T11:09:24;37.33;;;23.10;;
6693;SDS011;3384;42.628;23.380;2023-11-22T11:11:57;39.07;;;23.20;;
6693;SDS011;3384;42.628;23.380;2023-11-22T11:14:26;39.73;;;20.93;;
6693;SDS011;3384;42.628;23.380;2023-11-22T11:16:53;22.17;;;17.90;;
6693;SDS011;3384;42.628;23.380;2023-11-22T11:19:23;26.30;;;18.10;;
6693;SDS011;3384;42.628;23.380;2023-11-22T11:21:54;31.33;;;19.53;;
6693;SDS011;3384;42.628;23.380;2023-11-22T11:24:22;30.30;;;19.53;;
6693;SDS011;3384;42.628;23.380;2023-11-22T11:26:49;28.13;;;19.47;;
6693;SDS011;3384;42.628;23.380;2023-11-22T11:29:32;27.80;;;15.90;;
6693;SDS011;3384;42.628;23.380;2023-11-22T11:32:01;19.03;;;15.90;;
6693;SDS011;3384;42.628;23.380;2023-11-22T11:34:29;34.20;;;20.07;;
6693;SDS011;3384;42.628;23.380;2023-11-22T11:36:56;28.23;;;20.43;;
6693;SDS011;3384;42.628;23.380;2023-11-22T11:39:26;35.53;;;19.83;;
6693;SDS011;3384;42.628;23.380;2023-11-22T11:42:08;34.70;;;23.10;;
6693;SDS011;3384;42.628;23.380;2023-11-22T11:44:37;43.90;;;23.67;;
6693;SDS011;3384;42.628;23.380;2023-11-22T11:47:18;43.80;;;25.40;;
6693;SDS011;3384;42.628;23.380;2023-11-22T11:49:44;42.57;;;24.47;;
6693;SDS011;3384;42.628;23.380;2023-11-22T11:52:11;40.30;;;25.90;;
6693;SDS011;3384;42.628;23.380;2023-11-22T11:54:39;46.40;;;26.10;;
6693;SDS011;3384;42.628;23.380;2023-11-22T11:57:06;42.60;;;23.37;;
6693;SDS011;3384;42.628;23.380;2023-11-22T11:59:33;44.80;;;24.27;;
6693;SDS011;3384;42.628;23.380;2023-11-22T12:02:03;35.93;;;24.50;;
6693;SDS011;3384;42.628;23.380;2023-11-22T12:04:30;39.13;;;25.97;;
6693;SDS011;3384;42.628;23.380;2023-11-22T12:06:58;40.80;;;22.50;;
6693;SDS011;3384;42.628;23.380;2023-11-22T12:09:25;35.43;;;23.00;;
6693;SDS011;3384;42.628;23.380;2023-11-22T12:11:52;45.33;;;22.93;;
6693;SDS011;3384;42.628;23.380;2023-11-22T12:14:19;26.60;;;18.67;;
6693;SDS011;3384;42.628;23.380;2023-11-22T12:16:46;32.03;;;19.10;;
6693;SDS011;3384;42.628;23.380;2023-11-22T12:19:22;34.13;;;19.40;;
6693;SDS011;3384;42.628;23.380;2023-11-22T12:21:49;24.50;;;19.00;;
6693;SDS011;3384;42.628;23.380;2023-11-22T12:24:16;35.73;;;19.47;;
6693;SDS011;3384;42.628;23.380;2023-11-22T12:26:45;35.90;;;20.20;;
6693;SDS011;3384;42.628;23.380;2023-11-22T12:29:14;28.90;;;20.30;;
6693;SDS011;3384;42.628;23.380;2023-11-22T12:31:44;25.00;;;18.90;;
6693;SDS011;3384;42.628;23.380;2023-11-22T12:34:13;27.40;;;19.57;;
6693;SDS011;3384;42.628;23.380;2023-11-22T12:36:42;24.90;;;19.50;;
6693;SDS011;3384;42.628;23.380;2023-11-22T12:39:12;21.33;;;18.70;;
6693;SDS011;3384;42.628;23.380;2023-11-22T12:41:42;31.17;;;19.53;;
6693;SDS011;3384;42.628;23.380;2023-11-22T12:44:11;26.30;;;18.70;;
6693;SDS011;3384;42.628;23.380;2023-11-22T12:46:45;29.17;;;19.43;;
6693;SDS011;3384;42.628;23.380;2023-11-22T12:49:18;32.47;;;20.27;;
6693;SDS011;3384;42.628;23.380;2023-11-22T12:51:47;27.93;;;20.63;;
6693;SDS011;3384;42.628;23.380;2023-11-22T12:54:15;35.97;;;19.47;;
6693;SDS011;3384;42.628;23.380;2023-11-22T12:56:45;30.70;;;20.50;;
6693;SDS011;3384;42.628;23.380;2023-11-22T12:59:14;23.73;;;18.67;;
6693;SDS011;3384;42.628;23.380;2023-11-22T13:01:41;33.73;;;21.50;;
6693;SDS011;3384;42.628;23.380;2023-11-22T13:04:08;36.37;;;20.93;;
6693;SDS011;3384;42.628;23.380;2023-11-22T13:06:35;33.00;;;21.17;;
6693;SDS011;3384;42.628;23.380;2023-11-22T13:09:04;30.40;;;21.00;;
6693;SDS011;3384;42.628;23.380;2023-11-22T13:11:31;36.70;;;22.20;;
6693;SDS011;3384;42.628;23.380;2023-11-22T13:13:58;32.47;;;17.77;;
6693;SDS011;3384;42.628;23.380;2023-11-22T13:16:25;26.87;;;18.80;;
6693;SDS011;3384;42.628;23.380;2023-11-22T13:18:52;26.37;;;19.80;;
6693;SDS011;3384;42.628;23.380;2023-11-22T13:21:19;28.27;;;21.47;;
6693;SDS011;3384;42.628;23.380;2023-11-22T13:23:46;37.50;;;20.60;;
6693;SDS011;3384;42.628;23.380;2023-11-22T13:26:15;27.90;;;19.57;;
6693;SDS011;3384;42.628;23.380;2023-11-22T13:28:42;32.90;;;20.40;;
6693;SDS011;3384;42.628;23.380;2023-11-22T13:31:10;34.40;;;19.40;;
6693;SDS011;3384;42.628;23.380;2023-11-22T13:33:37;33.43;;;20.43;;
6693;SDS011;3384;42.628;23.380;2023-11-22T13:36:08;38.77;;;19.70;;
6693;SDS011;3384;42.628;23.380;2023-11-22T13:38:35;32.93;;;18.30;;
6693;SDS011;3384;42.628;23.380;2023-11-22T13:41:04;27.27;;;19.20;;
6693;SDS011;3384;42.628;23.380;2023-11-22T13:43:33;22.60;;;19.50;;
6693;SDS011;3384;42.628;23.380;2023-11-22T13:46:00;39.03;;;19.60;;
6693;SDS011;3384;42.628;23.380;2023-11-22T13:48:27;28.40;;;19.73;;
6693;SDS011;3384;42.628;23.380;2023-11-22T13:50:54;30.70;;;18.97;;
6693;SDS011;3384;42.628;23.380;2023-11-22T13:53:21;22.70;;;17.17;;
6693;SDS011;3384;42.628;23.380;2023-11-22T13:55:48;28.57;;;19.67;;
6693;SDS011;3384;42.628;23.380;2023-11-22T13:58:17;27.40;;;18.87;;
6693;SDS011;3384;42.628;23.380;2023-11-22T14:00:45;19.43;;;17.37;;
6693;SDS011;3384;42.628;23.380;2023-11-22T14:03:13;26.10;;;19.40;;
6693;SDS011;3384;42.628;23.380;2023-11-22T14:05:40;24.77;;;18.17;;
6693;SDS011;3384;42.628;23.380;2023-11-22T14:08:08;25.57;;;17.53;;
6693;SDS011;3384;42.628;23.380;2023-11-22T14:10:35;30.67;;;18.13;;
6693;SDS011;3384;42.628;23.380;2023-11-22T14:13:02;27.43;;;17.73;;
6693;SDS011;3384;42.628;23.380;2023-11-22T14:15:30;25.00;;;19.87;;
6693;SDS011;3384;42.628;23.380;2023-11-22T14:17:58;23.93;;;17.60;;
6693;SDS011;3384;42.628;23.380;2023-11-22T14:20:25;26.73;;;19.10;;
6693;SDS011;3384;42.628;23.380;2023-11-22T14:22:54;29.07;;;17.43;;
6693;SDS011;3384;42.628;23.380;2023-11-22T14:25:21;26.73;;;18.17;;
6693;SDS011;3384;42.628;23.380;2023-11-22T14:27:48;28.70;;;18.40;;
6693;SDS011;3384;42.628;23.380;2023-11-22T14:30:20;28.27;;;19.10;;
6693;SDS011;3384;42.628;23.380;2023-11-22T14:32:48;34.30;;;20.03;;
6693;SDS011;3384;42.628;23.380;2023-11-22T14:35:17;28.87;;;17.90;;
6693;SDS011;3384;42.628;23.380;2023-11-22T14:37:44;33.60;;;18.60;;
6693;SDS011;3384;42.628;23.380;2023-11-22T14:40:11;34.03;;;19.60;;